sensor_id;sensor_type;location;lat;lon;timestamp;P1;durP1;ratioP1;P2;durP2;ratioP2
71667;SDS011;59504;54.806;9.640;2023-04-01T00:00:38;21.50;;;7.65;;
71667;SDS011;59504;54.806;9.640;2023-04-01T00:02:51;14.38;;;6.80;;
71667;SDS011;59504;54.806;9.640;2023-04-01T00:05:11;18.67;;;6.97;;
71667;SDS011;59504;54.806;9.640;2023-04-01T00:07:32;15.02;;;6.57;;
71667;SDS011;59504;54.806;9.640;2023-04-01T00:09:53;18.38;;;6.80;;
71667;SDS011;59504;54.806;9.640;2023-04-01T00:12:14;16.73;;;6.90;;
71667;SDS011;59504;54.806;9.640;2023-04-01T00:14:35;16.38;;;5.70;;
71667;SDS011;59504;54.806;9.640;2023-04-01T00:17:00;17.30;;;6.80;;
71667;SDS011;59504;54.806;9.640;2023-04-01T00:19:26;13.82;;;6.30;;
71667;SDS011;59504;54.806;9.640;2023-04-01T00:21:47;15.80;;;4.88;;
71667;SDS011;59504;54.806;9.640;2023-04-01T00:24:08;12.73;;;4.88;;
71667;SDS011;59504;54.806;9.640;2023-04-01T00:26:31;12.45;;;4.95;;
71667;SDS011;59504;54.806;9.640;2023-04-01T00:28:52;13.85;;;4.93;;
71667;SDS011;59504;54.806;9.640;2023-04-01T00:31:13;13.93;;;4.88;;
71667;SDS011;59504;54.806;9.640;2023-04-01T00:33:37;12.00;;;4.55;;
71667;SDS011;59504;54.806;9.640;2023-04-01T00:36:05;12.43;;;4.68;;
71667;SDS011;59504;54.806;9.640;2023-04-01T00:38:30;16.23;;;4.43;;
71667;SDS011;59504;54.806;9.640;2023-04-01T00:41:03;9.50;;;3.40;;
71667;SDS011;59504;54.806;9.640;2023-04-01T00:43:24;12.05;;;3.20;;
71667;SDS011;59504;54.806;9.640;2023-04-01T00:45:45;12.05;;;3.47;;
71667;SDS011;59504;54.806;9.640;2023-04-01T00:48:09;5.75;;;2.08;;
71667;SDS011;59504;54.806;9.640;2023-04-01T00:50:33;15.20;;;3.20;;
71667;SDS011;59504;54.806;9.640;2023-04-01T00:52:54;7.38;;;2.60;;
71667;SDS011;59504;54.806;9.640;2023-04-01T00:55:15;10.45;;;2.88;;
71667;SDS011;59504;54.806;9.640;2023-04-01T00:57:39;9.93;;;2.65;;
71667;SDS011;59504;54.806;9.640;2023-04-01T00:59:47;11.57;;;2.97;;
71667;SDS011;59504;54.806;9.640;2023-04-01T01:01:51;14.55;;;3.00;;
71667;SDS011;59504;54.806;9.640;2023-04-01T01:03:58;10.77;;;2.90;;
71667;SDS011;59504;54.806;9.640;2023-04-01T01:08:15;6.43;;;2.13;;
71667;SDS011;59504;54.806;9.640;2023-04-01T01:10:42;9.85;;;2.20;;
71667;SDS011;59504;54.806;9.640;2023-04-01T01:15:12;4.97;;;1.92;;
71667;SDS011;59504;54.806;9.640;2023-04-01T01:17:26;9.43;;;2.70;;
71667;SDS011;59504;54.806;9.640;2023-04-01T01:25:03;14.95;;;2.92;;
71667;SDS011;59504;54.806;9.640;2023-04-01T01:27:30;12.75;;;2.55;;
71667;SDS011;59504;54.806;9.640;2023-04-01T01:32:22;9.15;;;1.88;;
71667;SDS011;59504;54.806;9.640;2023-04-01T01:34:40;13.32;;;1.35;;
71667;SDS011;59504;54.806;9.640;2023-04-01T01:37:22;9.23;;;1.50;;
71667;SDS011;59504;54.806;9.640;2023-04-01T01:42:09;17.88;;;2.42;;
71667;SDS011;59504;54.806;9.640;2023-04-01T01:44:13;3.83;;;1.10;;
71667;SDS011;59504;54.806;9.640;2023-04-01T01:46:39;6.22;;;1.38;;
71667;SDS011;59504;54.806;9.640;2023-04-01T01:49:02;13.50;;;1.98;;
71667;SDS011;59504;54.806;9.640;2023-04-01T01:51:25;11.18;;;1.15;;
71667;SDS011;59504;54.806;9.640;2023-04-01T01:53:47;13.00;;;2.00;;
71667;SDS011;59504;54.806;9.640;2023-04-01T01:56:10;11.57;;;1.25;;
71667;SDS011;59504;54.806;9.640;2023-04-01T02:01:01;6.35;;;1.13;;
71667;SDS011;59504;54.806;9.640;2023-04-01T02:03:25;5.03;;;1.15;;
71667;SDS011;59504;54.806;9.640;2023-04-01T02:05:49;5.45;;;1.10;;
71667;SDS011;59504;54.806;9.640;2023-04-01T02:08:09;8.80;;;1.73;;
71667;SDS011;59504;54.806;9.640;2023-04-01T02:10:15;10.43;;;1.38;;
71667;SDS011;59504;54.806;9.640;2023-04-01T02:12:17;4.45;;;1.20;;
71667;SDS011;59504;54.806;9.640;2023-04-01T02:14:22;7.68;;;1.13;;
71667;SDS011;59504;54.806;9.640;2023-04-01T02:16:32;5.57;;;1.20;;
71667;SDS011;59504;54.806;9.640;2023-04-01T02:18:40;7.60;;;1.00;;
71667;SDS011;59504;54.806;9.640;2023-04-01T02:20:44;6.55;;;1.10;;
71667;SDS011;59504;54.806;9.640;2023-04-01T02:22:52;7.55;;;1.10;;
71667;SDS011;59504;54.806;9.640;2023-04-01T02:25:00;8.25;;;1.38;;
71667;SDS011;59504;54.806;9.640;2023-04-01T02:27:08;6.03;;;1.65;;
71667;SDS011;59504;54.806;9.640;2023-04-01T02:29:10;16.08;;;2.10;;
71667;SDS011;59504;54.806;9.640;2023-04-01T02:31:12;16.33;;;1.70;;
71667;SDS011;59504;54.806;9.640;2023-04-01T02:33:14;11.18;;;2.22;;
71667;SDS011;59504;54.806;9.640;2023-04-01T02:35:16;8.32;;;1.75;;
71667;SDS011;59504;54.806;9.640;2023-04-01T02:37:18;9.27;;;1.23;;
71667;SDS011;59504;54.806;9.640;2023-04-01T02:39:19;8.50;;;1.13;;
71667;SDS011;59504;54.806;9.640;2023-04-01T02:41:19;8.57;;;1.58;;
71667;SDS011;59504;54.806;9.640;2023-04-01T02:43:21;8.93;;;1.50;;
71667;SDS011;59504;54.806;9.640;2023-04-01T02:45:21;7.35;;;1.23;;
71667;SDS011;59504;54.806;9.640;2023-04-01T02:47:22;8.00;;;1.25;;
71667;SDS011;59504;54.806;9.640;2023-04-01T02:49:23;8.90;;;1.75;;
71667;SDS011;59504;54.806;9.640;2023-04-01T02:51:26;11.57;;;1.52;;
71667;SDS011;59504;54.806;9.640;2023-04-01T02:53:26;8.43;;;1.92;;
71667;SDS011;59504;54.806;9.640;2023-04-01T02:55:27;9.43;;;1.58;;
71667;SDS011;59504;54.806;9.640;2023-04-01T02:57:28;9.07;;;1.33;;
71667;SDS011;59504;54.806;9.640;2023-04-01T02:59:29;8.68;;;1.48;;
71667;SDS011;59504;54.806;9.640;2023-04-01T03:01:30;4.03;;;1.20;;
71667;SDS011;59504;54.806;9.640;2023-04-01T03:03:31;6.65;;;1.25;;
71667;SDS011;59504;54.806;9.640;2023-04-01T03:05:31;8.13;;;1.70;;
71667;SDS011;59504;54.806;9.640;2023-04-01T03:07:35;8.00;;;1.50;;
71667;SDS011;59504;54.806;9.640;2023-04-01T03:09:37;6.78;;;1.65;;
71667;SDS011;59504;54.806;9.640;2023-04-01T03:11:38;11.10;;;2.30;;
71667;SDS011;59504;54.806;9.640;2023-04-01T03:13:39;8.77;;;1.75;;
71667;SDS011;59504;54.806;9.640;2023-04-01T03:15:39;6.50;;;1.35;;
71667;SDS011;59504;54.806;9.640;2023-04-01T03:17:40;11.68;;;1.48;;
71667;SDS011;59504;54.806;9.640;2023-04-01T03:19:41;3.33;;;1.02;;
71667;SDS011;59504;54.806;9.640;2023-04-01T03:21:42;8.63;;;1.73;;
71667;SDS011;59504;54.806;9.640;2023-04-01T03:23:43;8.60;;;1.25;;
71667;SDS011;59504;54.806;9.640;2023-04-01T03:25:44;10.23;;;1.40;;
71667;SDS011;59504;54.806;9.640;2023-04-01T03:27:45;7.80;;;1.73;;
71667;SDS011;59504;54.806;9.640;2023-04-01T03:29:46;6.00;;;1.33;;
71667;SDS011;59504;54.806;9.640;2023-04-01T03:31:46;7.85;;;1.65;;
71667;SDS011;59504;54.806;9.640;2023-04-01T03:33:52;4.85;;;1.23;;
71667;SDS011;59504;54.806;9.640;2023-04-01T03:35:53;11.88;;;1.98;;
71667;SDS011;59504;54.806;9.640;2023-04-01T03:37:54;9.48;;;1.83;;
71667;SDS011;59504;54.806;9.640;2023-04-01T03:39:54;3.97;;;1.85;;
71667;SDS011;59504;54.806;9.640;2023-04-01T03:41:55;9.85;;;1.63;;
71667;SDS011;59504;54.806;9.640;2023-04-01T03:43:56;6.68;;;1.38;;
71667;SDS011;59504;54.806;9.640;2023-04-01T03:45:57;7.22;;;1.42;;
71667;SDS011;59504;54.806;9.640;2023-04-01T03:47:58;10.13;;;1.65;;
71667;SDS011;59504;54.806;9.640;2023-04-01T03:50:02;10.52;;;2.00;;
71667;SDS011;59504;54.806;9.640;2023-04-01T03:52:04;7.25;;;1.60;;
71667;SDS011;59504;54.806;9.640;2023-04-01T03:54:08;8.98;;;2.00;;
71667;SDS011;59504;54.806;9.640;2023-04-01T03:56:12;7.70;;;1.30;;
71667;SDS011;59504;54.806;9.640;2023-04-01T03:58:16;9.10;;;2.00;;
71667;SDS011;59504;54.806;9.640;2023-04-01T04:00:17;4.95;;;1.20;;
71667;SDS011;59504;54.806;9.640;2023-04-01T04:02:18;7.57;;;2.08;;
71667;SDS011;59504;54.806;9.640;2023-04-01T04:04:19;7.32;;;2.22;;
71667;SDS011;59504;54.806;9.640;2023-04-01T04:06:20;4.10;;;1.45;;
71667;SDS011;59504;54.806;9.640;2023-04-01T04:08:20;8.18;;;1.80;;
71667;SDS011;59504;54.806;9.640;2023-04-01T04:10:21;7.82;;;1.70;;
71667;SDS011;59504;54.806;9.640;2023-04-01T04:12:25;7.15;;;1.65;;
71667;SDS011;59504;54.806;9.640;2023-04-01T04:14:26;7.32;;;1.48;;
71667;SDS011;59504;54.806;9.640;2023-04-01T04:16:27;6.70;;;1.85;;
71667;SDS011;59504;54.806;9.640;2023-04-01T04:18:28;13.63;;;1.83;;
71667;SDS011;59504;54.806;9.640;2023-04-01T04:20:29;9.82;;;2.00;;
71667;SDS011;59504;54.806;9.640;2023-04-01T04:22:29;9.95;;;2.15;;
71667;SDS011;59504;54.806;9.640;2023-04-01T04:24:30;7.57;;;1.85;;
71667;SDS011;59504;54.806;9.640;2023-04-01T04:26:31;9.70;;;1.55;;
71667;SDS011;59504;54.806;9.640;2023-04-01T04:28:31;9.95;;;1.65;;
71667;SDS011;59504;54.806;9.640;2023-04-01T04:30:32;6.93;;;1.75;;
71667;SDS011;59504;54.806;9.640;2023-04-01T04:32:37;6.28;;;1.92;;
71667;SDS011;59504;54.806;9.640;2023-04-01T04:34:40;8.90;;;2.28;;
71667;SDS011;59504;54.806;9.640;2023-04-01T04:36:41;3.70;;;1.55;;
71667;SDS011;59504;54.806;9.640;2023-04-01T04:38:42;6.97;;;2.17;;
71667;SDS011;59504;54.806;9.640;2023-04-01T04:41:02;6.53;;;1.88;;
71667;SDS011;59504;54.806;9.640;2023-04-01T04:43:05;5.22;;;1.55;;
71667;SDS011;59504;54.806;9.640;2023-04-01T04:45:06;8.02;;;1.70;;
71667;SDS011;59504;54.806;9.640;2023-04-01T04:47:10;12.02;;;1.60;;
71667;SDS011;59504;54.806;9.640;2023-04-01T04:49:19;7.32;;;1.70;;
71667;SDS011;59504;54.806;9.640;2023-04-01T04:53:21;8.82;;;1.70;;
71667;SDS011;59504;54.806;9.640;2023-04-01T04:55:21;5.70;;;1.90;;
71667;SDS011;59504;54.806;9.640;2023-04-01T04:57:25;7.28;;;1.33;;
71667;SDS011;59504;54.806;9.640;2023-04-01T04:59:34;5.95;;;1.35;;
71667;SDS011;59504;54.806;9.640;2023-04-01T05:01:35;2.85;;;1.20;;
71667;SDS011;59504;54.806;9.640;2023-04-01T05:03:36;8.88;;;1.60;;
71667;SDS011;59504;54.806;9.640;2023-04-01T05:05:47;2.70;;;1.13;;
71667;SDS011;59504;54.806;9.640;2023-04-01T05:07:49;6.05;;;1.38;;
71667;SDS011;59504;54.806;9.640;2023-04-01T05:09:50;5.90;;;1.48;;
71667;SDS011;59504;54.806;9.640;2023-04-01T05:11:51;6.65;;;1.45;;
71667;SDS011;59504;54.806;9.640;2023-04-01T05:13:52;6.20;;;2.00;;
71667;SDS011;59504;54.806;9.640;2023-04-01T05:15:52;6.30;;;1.40;;
71667;SDS011;59504;54.806;9.640;2023-04-01T05:17:53;10.52;;;1.77;;
71667;SDS011;59504;54.806;9.640;2023-04-01T05:19:58;10.05;;;2.17;;
71667;SDS011;59504;54.806;9.640;2023-04-01T05:21:59;9.27;;;1.63;;
71667;SDS011;59504;54.806;9.640;2023-04-01T05:24:00;5.95;;;1.05;;
71667;SDS011;59504;54.806;9.640;2023-04-01T05:26:04;5.55;;;1.20;;
71667;SDS011;59504;54.806;9.640;2023-04-01T05:28:09;4.47;;;1.30;;
71667;SDS011;59504;54.806;9.640;2023-04-01T05:30:10;3.45;;;1.20;;
71667;SDS011;59504;54.806;9.640;2023-04-01T05:32:14;5.40;;;1.73;;
71667;SDS011;59504;54.806;9.640;2023-04-01T05:34:18;12.27;;;1.83;;
71667;SDS011;59504;54.806;9.640;2023-04-01T05:36:22;6.25;;;1.40;;
71667;SDS011;59504;54.806;9.640;2023-04-01T05:38:34;10.15;;;1.42;;
71667;SDS011;59504;54.806;9.640;2023-04-01T05:40:41;11.88;;;1.63;;
71667;SDS011;59504;54.806;9.640;2023-04-01T05:42:53;9.65;;;1.48;;
71667;SDS011;59504;54.806;9.640;2023-04-01T05:44:54;12.90;;;2.13;;
71667;SDS011;59504;54.806;9.640;2023-04-01T05:46:58;7.95;;;1.75;;
71667;SDS011;59504;54.806;9.640;2023-04-01T05:48:59;11.88;;;2.22;;
71667;SDS011;59504;54.806;9.640;2023-04-01T05:51:00;7.05;;;1.38;;
71667;SDS011;59504;54.806;9.640;2023-04-01T05:53:01;12.10;;;1.40;;
71667;SDS011;59504;54.806;9.640;2023-04-01T05:55:02;10.75;;;1.60;;
71667;SDS011;59504;54.806;9.640;2023-04-01T05:57:05;10.77;;;2.03;;
71667;SDS011;59504;54.806;9.640;2023-04-01T05:59:06;14.45;;;1.60;;
71667;SDS011;59504;54.806;9.640;2023-04-01T06:01:10;16.58;;;2.22;;
71667;SDS011;59504;54.806;9.640;2023-04-01T06:03:11;10.02;;;1.55;;
71667;SDS011;59504;54.806;9.640;2023-04-01T06:05:13;6.90;;;1.90;;
71667;SDS011;59504;54.806;9.640;2023-04-01T06:07:18;8.82;;;2.00;;
71667;SDS011;59504;54.806;9.640;2023-04-01T06:09:21;9.50;;;1.80;;
71667;SDS011;59504;54.806;9.640;2023-04-01T06:11:33;13.88;;;1.48;;
71667;SDS011;59504;54.806;9.640;2023-04-01T06:13:50;5.43;;;1.55;;
71667;SDS011;59504;54.806;9.640;2023-04-01T06:16:32;6.70;;;1.42;;
71667;SDS011;59504;54.806;9.640;2023-04-01T06:18:42;9.65;;;1.90;;
71667;SDS011;59504;54.806;9.640;2023-04-01T06:25:19;8.20;;;1.73;;
71667;SDS011;59504;54.806;9.640;2023-04-01T06:29:46;10.55;;;2.00;;
71667;SDS011;59504;54.806;9.640;2023-04-01T06:34:40;10.90;;;2.10;;
71667;SDS011;59504;54.806;9.640;2023-04-01T06:37:37;6.97;;;1.70;;
71667;SDS011;59504;54.806;9.640;2023-04-01T06:42:49;11.63;;;2.17;;
71667;SDS011;59504;54.806;9.640;2023-04-01T06:45:20;5.30;;;1.67;;
71667;SDS011;59504;54.806;9.640;2023-04-01T06:47:54;7.28;;;1.60;;
71667;SDS011;59504;54.806;9.640;2023-04-01T06:50:30;4.22;;;1.30;;
71667;SDS011;59504;54.806;9.640;2023-04-01T06:53:12;6.57;;;1.55;;
71667;SDS011;59504;54.806;9.640;2023-04-01T06:55:52;6.43;;;1.50;;
71667;SDS011;59504;54.806;9.640;2023-04-01T06:58:27;8.32;;;1.73;;
71667;SDS011;59504;54.806;9.640;2023-04-01T07:00:37;10.40;;;2.22;;
71667;SDS011;59504;54.806;9.640;2023-04-01T07:02:45;6.88;;;1.55;;
71667;SDS011;59504;54.806;9.640;2023-04-01T07:04:53;16.40;;;2.10;;
71667;SDS011;59504;54.806;9.640;2023-04-01T07:09:25;8.43;;;1.60;;
71667;SDS011;59504;54.806;9.640;2023-04-01T07:11:53;8.75;;;1.65;;
71667;SDS011;59504;54.806;9.640;2023-04-01T07:18:52;6.82;;;1.98;;
71667;SDS011;59504;54.806;9.640;2023-04-01T07:20:57;12.07;;;1.85;;
71667;SDS011;59504;54.806;9.640;2023-04-01T07:23:00;7.97;;;2.03;;
71667;SDS011;59504;54.806;9.640;2023-04-01T07:25:24;8.95;;;2.08;;
71667;SDS011;59504;54.806;9.640;2023-04-01T07:27:31;5.72;;;1.83;;
71667;SDS011;59504;54.806;9.640;2023-04-01T07:29:31;11.70;;;2.20;;
71667;SDS011;59504;54.806;9.640;2023-04-01T07:34:22;9.35;;;2.20;;
71667;SDS011;59504;54.806;9.640;2023-04-01T07:36:31;15.20;;;2.42;;
71667;SDS011;59504;54.806;9.640;2023-04-01T07:41:07;10.50;;;2.17;;
71667;SDS011;59504;54.806;9.640;2023-04-01T07:50:02;10.23;;;2.28;;
71667;SDS011;59504;54.806;9.640;2023-04-01T07:52:55;13.10;;;2.53;;
71667;SDS011;59504;54.806;9.640;2023-04-01T07:57:01;7.47;;;2.70;;
71667;SDS011;59504;54.806;9.640;2023-04-01T07:59:48;14.32;;;2.95;;
71667;SDS011;59504;54.806;9.640;2023-04-01T08:02:33;13.32;;;2.97;;
71667;SDS011;59504;54.806;9.640;2023-04-01T08:17:02;9.27;;;3.05;;
71667;SDS011;59504;54.806;9.640;2023-04-01T08:21:54;12.15;;;3.88;;
71667;SDS011;59504;54.806;9.640;2023-04-01T08:24:29;9.48;;;3.00;;
71667;SDS011;59504;54.806;9.640;2023-04-01T08:27:05;22.15;;;3.92;;
71667;SDS011;59504;54.806;9.640;2023-04-01T08:29:13;12.25;;;3.67;;
71667;SDS011;59504;54.806;9.640;2023-04-01T08:33:56;14.52;;;3.70;;
71667;SDS011;59504;54.806;9.640;2023-04-01T08:36:59;8.93;;;3.60;;
71667;SDS011;59504;54.806;9.640;2023-04-01T08:38:46;12.65;;;4.35;;
71667;SDS011;59504;54.806;9.640;2023-04-01T08:40:55;14.85;;;3.78;;
71667;SDS011;59504;54.806;9.640;2023-04-01T08:43:04;17.20;;;3.70;;
71667;SDS011;59504;54.806;9.640;2023-04-01T08:53:26;20.33;;;3.80;;
71667;SDS011;59504;54.806;9.640;2023-04-01T09:00:24;11.60;;;4.50;;
71667;SDS011;59504;54.806;9.640;2023-04-01T09:12:28;18.05;;;3.95;;
71667;SDS011;59504;54.806;9.640;2023-04-01T09:25:02;13.30;;;3.60;;
71667;SDS011;59504;54.806;9.640;2023-04-01T09:44:59;13.50;;;3.47;;
71667;SDS011;59504;54.806;9.640;2023-04-01T09:59:51;13.98;;;4.30;;
71667;SDS011;59504;54.806;9.640;2023-04-01T10:01:52;17.00;;;3.95;;
71667;SDS011;59504;54.806;9.640;2023-04-01T10:09:40;21.27;;;3.90;;
71667;SDS011;59504;54.806;9.640;2023-04-01T10:38:29;12.75;;;3.38;;
71667;SDS011;59504;54.806;9.640;2023-04-01T10:44:15;13.98;;;3.65;;
71667;SDS011;59504;54.806;9.640;2023-04-01T10:54:16;11.10;;;3.70;;
71667;SDS011;59504;54.806;9.640;2023-04-01T11:13:21;9.38;;;3.08;;
71667;SDS011;59504;54.806;9.640;2023-04-01T11:20:45;8.55;;;3.05;;
71667;SDS011;59504;54.806;9.640;2023-04-01T11:23:12;8.57;;;3.25;;
71667;SDS011;59504;54.806;9.640;2023-04-01T11:27:54;8.43;;;2.25;;
71667;SDS011;59504;54.806;9.640;2023-04-01T11:30:28;11.23;;;2.45;;
71667;SDS011;59504;54.806;9.640;2023-04-01T11:32:54;7.97;;;3.10;;
71667;SDS011;59504;54.806;9.640;2023-04-01T11:39:50;13.52;;;2.90;;
71667;SDS011;59504;54.806;9.640;2023-04-01T11:44:29;10.88;;;3.40;;
71667;SDS011;59504;54.806;9.640;2023-04-01T11:49:07;10.15;;;3.40;;
71667;SDS011;59504;54.806;9.640;2023-04-01T11:51:53;10.87;;;2.93;;
71667;SDS011;59504;54.806;9.640;2023-04-01T11:54:37;11.23;;;3.53;;
71667;SDS011;59504;54.806;9.640;2023-04-01T11:57:07;8.15;;;2.72;;
71667;SDS011;59504;54.806;9.640;2023-04-01T12:04:36;14.30;;;3.33;;
71667;SDS011;59504;54.806;9.640;2023-04-01T12:07:10;19.35;;;3.83;;
71667;SDS011;59504;54.806;9.640;2023-04-01T12:10:01;7.32;;;2.55;;
71667;SDS011;59504;54.806;9.640;2023-04-01T12:17:57;18.23;;;2.97;;
71667;SDS011;59504;54.806;9.640;2023-04-01T12:20:45;8.15;;;2.75;;
71667;SDS011;59504;54.806;9.640;2023-04-01T12:23:16;10.05;;;2.97;;
71667;SDS011;59504;54.806;9.640;2023-04-01T12:26:03;12.93;;;2.83;;
71667;SDS011;59504;54.806;9.640;2023-04-01T12:36:35;10.82;;;2.50;;
71667;SDS011;59504;54.806;9.640;2023-04-01T12:48:27;10.07;;;2.53;;
71667;SDS011;59504;54.806;9.640;2023-04-01T12:50:58;5.93;;;2.03;;
71667;SDS011;59504;54.806;9.640;2023-04-01T13:09:37;6.25;;;2.40;;
71667;SDS011;59504;54.806;9.640;2023-04-01T13:12:14;9.10;;;1.77;;
71667;SDS011;59504;54.806;9.640;2023-04-01T13:14:50;10.73;;;2.20;;
71667;SDS011;59504;54.806;9.640;2023-04-01T13:17:03;11.15;;;2.20;;
71667;SDS011;59504;54.806;9.640;2023-04-01T13:19:19;11.82;;;1.83;;
71667;SDS011;59504;54.806;9.640;2023-04-01T13:26:21;6.80;;;2.13;;
71667;SDS011;59504;54.806;9.640;2023-04-01T13:31:16;8.48;;;2.03;;
71667;SDS011;59504;54.806;9.640;2023-04-01T13:33:37;7.63;;;2.08;;
71667;SDS011;59504;54.806;9.640;2023-04-01T13:35:46;7.22;;;2.38;;
71667;SDS011;59504;54.806;9.640;2023-04-01T13:38:17;6.68;;;2.30;;
71667;SDS011;59504;54.806;9.640;2023-04-01T13:40:41;7.63;;;2.22;;
71667;SDS011;59504;54.806;9.640;2023-04-01T13:45:26;14.68;;;2.40;;
71667;SDS011;59504;54.806;9.640;2023-04-01T13:50:15;8.45;;;2.10;;
71667;SDS011;59504;54.806;9.640;2023-04-01T13:52:36;14.93;;;2.15;;
71667;SDS011;59504;54.806;9.640;2023-04-01T13:57:23;9.98;;;2.13;;
71667;SDS011;59504;54.806;9.640;2023-04-01T14:09:42;9.18;;;2.05;;
71667;SDS011;59504;54.806;9.640;2023-04-01T14:12:30;4.90;;;1.55;;
71667;SDS011;59504;54.806;9.640;2023-04-01T14:24:20;6.07;;;1.33;;
71667;SDS011;59504;54.806;9.640;2023-04-01T14:33:28;8.98;;;1.45;;
71667;SDS011;59504;54.806;9.640;2023-04-01T14:35:39;7.85;;;1.60;;
71667;SDS011;59504;54.806;9.640;2023-04-01T14:37:58;10.38;;;1.60;;
71667;SDS011;59504;54.806;9.640;2023-04-01T14:45:16;3.22;;;1.38;;
71667;SDS011;59504;54.806;9.640;2023-04-01T14:47:43;7.93;;;1.92;;
71667;SDS011;59504;54.806;9.640;2023-04-01T14:49:52;7.45;;;1.63;;
71667;SDS011;59504;54.806;9.640;2023-04-01T14:52:04;7.05;;;1.60;;
71667;SDS011;59504;54.806;9.640;2023-04-01T14:54:32;9.73;;;1.80;;
71667;SDS011;59504;54.806;9.640;2023-04-01T14:56:49;8.07;;;1.60;;
71667;SDS011;59504;54.806;9.640;2023-04-01T14:58:57;6.32;;;1.45;;
71667;SDS011;59504;54.806;9.640;2023-04-01T15:03:13;4.63;;;1.17;;
71667;SDS011;59504;54.806;9.640;2023-04-01T15:12:23;6.57;;;1.42;;
71667;SDS011;59504;54.806;9.640;2023-04-01T15:22:38;3.45;;;1.02;;
71667;SDS011;59504;54.806;9.640;2023-04-01T15:32:55;15.25;;;1.13;;
71667;SDS011;59504;54.806;9.640;2023-04-01T15:35:53;6.50;;;1.30;;
71667;SDS011;59504;54.806;9.640;2023-04-01T15:43:42;7.18;;;1.05;;
71667;SDS011;59504;54.806;9.640;2023-04-01T15:46:08;6.30;;;1.13;;
71667;SDS011;59504;54.806;9.640;2023-04-01T15:50:51;5.95;;;0.90;;
71667;SDS011;59504;54.806;9.640;2023-04-01T15:55:52;9.43;;;0.75;;
71667;SDS011;59504;54.806;9.640;2023-04-01T15:58:15;1.65;;;0.80;;
71667;SDS011;59504;54.806;9.640;2023-04-01T16:01:04;5.38;;;0.90;;
71667;SDS011;59504;54.806;9.640;2023-04-01T16:07:48;5.22;;;1.13;;
71667;SDS011;59504;54.806;9.640;2023-04-01T16:10:06;3.03;;;0.85;;
71667;SDS011;59504;54.806;9.640;2023-04-01T16:17:48;4.57;;;0.82;;
71667;SDS011;59504;54.806;9.640;2023-04-01T16:20:19;3.38;;;0.82;;
71667;SDS011;59504;54.806;9.640;2023-04-01T16:22:56;3.85;;;0.63;;
71667;SDS011;59504;54.806;9.640;2023-04-01T16:25:41;5.50;;;0.93;;
71667;SDS011;59504;54.806;9.640;2023-04-01T16:28:18;6.75;;;1.10;;
71667;SDS011;59504;54.806;9.640;2023-04-01T16:30:58;6.70;;;1.08;;
71667;SDS011;59504;54.806;9.640;2023-04-01T16:33:28;4.40;;;0.70;;
71667;SDS011;59504;54.806;9.640;2023-04-01T16:38:41;4.68;;;0.88;;
71667;SDS011;59504;54.806;9.640;2023-04-01T16:41:26;7.25;;;1.25;;
71667;SDS011;59504;54.806;9.640;2023-04-01T16:45:56;5.55;;;1.15;;
71667;SDS011;59504;54.806;9.640;2023-04-01T16:48:15;5.70;;;1.30;;
71667;SDS011;59504;54.806;9.640;2023-04-01T16:50:24;4.18;;;0.98;;
71667;SDS011;59504;54.806;9.640;2023-04-01T16:53:01;3.40;;;1.10;;
71667;SDS011;59504;54.806;9.640;2023-04-01T16:55:48;8.38;;;1.15;;
71667;SDS011;59504;54.806;9.640;2023-04-01T16:58:13;4.70;;;0.70;;
71667;SDS011;59504;54.806;9.640;2023-04-01T17:00:48;5.05;;;0.57;;
71667;SDS011;59504;54.806;9.640;2023-04-01T17:08:15;4.32;;;0.90;;
71667;SDS011;59504;54.806;9.640;2023-04-01T17:10:53;5.50;;;0.80;;
71667;SDS011;59504;54.806;9.640;2023-04-01T17:21:18;6.70;;;0.95;;
71667;SDS011;59504;54.806;9.640;2023-04-01T17:32:12;6.32;;;1.10;;
71667;SDS011;59504;54.806;9.640;2023-04-01T17:43:07;3.83;;;0.90;;
71667;SDS011;59504;54.806;9.640;2023-04-01T17:45:55;7.00;;;1.17;;
71667;SDS011;59504;54.806;9.640;2023-04-01T17:51:08;5.38;;;1.13;;
71667;SDS011;59504;54.806;9.640;2023-04-01T17:56:23;4.85;;;1.27;;
71667;SDS011;59504;54.806;9.640;2023-04-01T17:59:16;9.55;;;1.00;;
71667;SDS011;59504;54.806;9.640;2023-04-01T18:10:29;2.45;;;0.95;;
71667;SDS011;59504;54.806;9.640;2023-04-01T18:15:06;8.10;;;1.88;;
71667;SDS011;59504;54.806;9.640;2023-04-01T18:20:30;3.53;;;1.30;;
71667;SDS011;59504;54.806;9.640;2023-04-01T18:30:57;6.32;;;1.10;;
71667;SDS011;59504;54.806;9.640;2023-04-01T18:33:29;4.28;;;0.85;;
71667;SDS011;59504;54.806;9.640;2023-04-01T18:36:03;5.78;;;1.17;;
71667;SDS011;59504;54.806;9.640;2023-04-01T18:38:36;5.07;;;1.90;;
71667;SDS011;59504;54.806;9.640;2023-04-01T18:41:15;4.63;;;1.13;;
71667;SDS011;59504;54.806;9.640;2023-04-01T18:48:47;4.70;;;0.90;;
71667;SDS011;59504;54.806;9.640;2023-04-01T18:55:32;8.85;;;1.25;;
71667;SDS011;59504;54.806;9.640;2023-04-01T18:57:42;3.33;;;0.80;;
71667;SDS011;59504;54.806;9.640;2023-04-01T18:59:56;6.63;;;1.17;;
71667;SDS011;59504;54.806;9.640;2023-04-01T19:02:13;6.65;;;1.10;;
71667;SDS011;59504;54.806;9.640;2023-04-01T19:06:26;4.22;;;0.93;;
71667;SDS011;59504;54.806;9.640;2023-04-01T19:09:30;9.45;;;1.10;;
71667;SDS011;59504;54.806;9.640;2023-04-01T19:16:55;5.10;;;1.25;;
71667;SDS011;59504;54.806;9.640;2023-04-01T19:23:57;7.68;;;1.33;;
71667;SDS011;59504;54.806;9.640;2023-04-01T19:26:39;10.20;;;1.75;;
71667;SDS011;59504;54.806;9.640;2023-04-01T19:36:56;5.43;;;1.55;;
71667;SDS011;59504;54.806;9.640;2023-04-01T19:51:15;10.98;;;1.80;;
71667;SDS011;59504;54.806;9.640;2023-04-01T19:53:57;4.65;;;1.00;;
71667;SDS011;59504;54.806;9.640;2023-04-01T19:56:24;11.15;;;1.77;;
71667;SDS011;59504;54.806;9.640;2023-04-01T20:01:04;4.90;;;1.00;;
71667;SDS011;59504;54.806;9.640;2023-04-01T20:05:51;8.68;;;1.60;;
71667;SDS011;59504;54.806;9.640;2023-04-01T20:08:10;4.32;;;1.00;;
71667;SDS011;59504;54.806;9.640;2023-04-01T20:10:22;5.40;;;1.23;;
71667;SDS011;59504;54.806;9.640;2023-04-01T20:14:58;5.43;;;1.13;;
71667;SDS011;59504;54.806;9.640;2023-04-01T20:19:37;3.70;;;0.73;;
71667;SDS011;59504;54.806;9.640;2023-04-01T20:21:45;5.50;;;1.10;;
71667;SDS011;59504;54.806;9.640;2023-04-01T20:24:14;10.15;;;1.40;;
71667;SDS011;59504;54.806;9.640;2023-04-01T20:26:46;6.05;;;1.20;;
71667;SDS011;59504;54.806;9.640;2023-04-01T20:29:35;3.70;;;1.20;;
71667;SDS011;59504;54.806;9.640;2023-04-01T20:32:08;5.35;;;1.30;;
71667;SDS011;59504;54.806;9.640;2023-04-01T20:41:07;7.13;;;1.48;;
71667;SDS011;59504;54.806;9.640;2023-04-01T20:43:30;7.03;;;1.10;;
71667;SDS011;59504;54.806;9.640;2023-04-01T20:46:19;8.20;;;1.23;;
71667;SDS011;59504;54.806;9.640;2023-04-01T20:51:13;5.65;;;0.80;;
71667;SDS011;59504;54.806;9.640;2023-04-01T20:53:48;8.35;;;1.38;;
71667;SDS011;59504;54.806;9.640;2023-04-01T20:58:23;7.75;;;1.08;;
71667;SDS011;59504;54.806;9.640;2023-04-01T21:00:51;8.15;;;1.00;;
71667;SDS011;59504;54.806;9.640;2023-04-01T21:11:04;3.13;;;0.90;;
71667;SDS011;59504;54.806;9.640;2023-04-01T21:16:01;9.18;;;1.65;;
71667;SDS011;59504;54.806;9.640;2023-04-01T21:18:54;6.05;;;1.10;;
71667;SDS011;59504;54.806;9.640;2023-04-01T21:32:12;3.92;;;0.88;;
71667;SDS011;59504;54.806;9.640;2023-04-01T21:36:48;6.38;;;1.20;;
71667;SDS011;59504;54.806;9.640;2023-04-01T21:41:18;11.73;;;1.25;;
71667;SDS011;59504;54.806;9.640;2023-04-01T21:43:41;6.07;;;1.13;;
71667;SDS011;59504;54.806;9.640;2023-04-01T21:52:38;7.15;;;1.05;;
71667;SDS011;59504;54.806;9.640;2023-04-01T22:03:50;5.40;;;1.00;;
71667;SDS011;59504;54.806;9.640;2023-04-01T22:06:18;3.55;;;1.00;;
71667;SDS011;59504;54.806;9.640;2023-04-01T22:12:02;8.07;;;1.17;;
71667;SDS011;59504;54.806;9.640;2023-04-01T22:17:21;6.80;;;1.00;;